createdAt,value
2023-05-27T00:00:50.889Z,15.30
2023-05-27T00:03:29.586Z,16.70
2023-05-27T00:05:58.628Z,15.20
2023-05-27T00:08:27.385Z,14.30
2023-05-27T00:10:56.062Z,15.60
2023-05-27T00:13:24.751Z,12.70
2023-05-27T00:15:53.898Z,13.10
2023-05-27T00:18:23.261Z,14.70
2023-05-27T00:20:52.180Z,14.60
2023-05-27T00:23:21.571Z,15.70
2023-05-27T00:25:50.399Z,16.10
2023-05-27T00:28:19.940Z,20.40
2023-05-27T00:30:48.726Z,18.00
2023-05-27T00:33:17.628Z,18.50
2023-05-27T00:35:46.409Z,14.80
2023-05-27T00:38:15.131Z,14.10
2023-05-27T00:40:44.911Z,13.80
2023-05-27T00:43:13.936Z,19.60
2023-05-27T00:45:42.604Z,18.20
2023-05-27T00:48:12.182Z,20.00
2023-05-27T00:50:41.387Z,17.00
2023-05-27T00:53:10.398Z,14.50
2023-05-27T00:55:39.268Z,17.90
2023-05-27T00:58:10.833Z,18.10
2023-05-27T01:00:40.238Z,15.10
2023-05-27T01:03:09.481Z,15.00
2023-05-27T01:05:39.981Z,16.10
2023-05-27T01:08:21.863Z,14.80
2023-05-27T01:10:53.934Z,18.30
2023-05-27T01:13:37.250Z,14.40
2023-05-27T01:16:12.628Z,15.30
2023-05-27T01:18:43.346Z,18.30
2023-05-27T01:21:20.563Z,15.70
2023-05-27T01:23:50.461Z,22.10
2023-05-27T01:26:19.308Z,16.70
2023-05-27T01:28:48.300Z,17.00
2023-05-27T01:31:37.627Z,18.90
2023-05-27T01:34:11.579Z,18.30
2023-05-27T01:36:48.991Z,16.90
2023-05-27T01:39:18.300Z,18.50
2023-05-27T01:41:47.495Z,13.70
2023-05-27T01:44:18.608Z,13.20
2023-05-27T01:46:48.093Z,16.30
2023-05-27T01:49:17.005Z,15.60
2023-05-27T01:51:45.689Z,15.70
2023-05-27T01:54:14.377Z,16.60
2023-05-27T01:56:43.166Z,17.60
2023-05-27T01:59:11.843Z,14.40
2023-05-27T02:01:42.575Z,17.80
2023-05-27T02:04:11.802Z,14.70
2023-05-27T02:06:42.130Z,15.30
2023-05-27T02:09:14.281Z,16.60
2023-05-27T02:11:45.133Z,12.80
2023-05-27T02:14:13.795Z,12.10
2023-05-27T02:16:42.783Z,16.60
2023-05-27T02:19:11.991Z,15.30
2023-05-27T02:21:40.904Z,19.00
2023-05-27T02:24:09.650Z,16.20
2023-05-27T02:26:39.491Z,14.90
2023-05-27T02:29:10.332Z,13.10
2023-05-27T02:31:39.289Z,14.70
2023-05-27T02:34:08.616Z,16.90
2023-05-27T02:36:37.493Z,15.60
2023-05-27T02:39:07.646Z,13.30
2023-05-27T02:41:36.719Z,14.60
2023-05-27T02:44:07.145Z,13.80
2023-05-27T02:46:35.759Z,16.00
2023-05-27T02:49:04.849Z,14.50
2023-05-27T02:51:33.601Z,16.40
2023-05-27T02:54:02.410Z,13.10
2023-05-27T02:56:31.187Z,13.20
2023-05-27T02:58:59.968Z,12.50
2023-05-27T03:01:28.772Z,15.60
2023-05-27T03:03:57.565Z,14.80
2023-05-27T03:06:26.336Z,13.10
2023-05-27T03:08:55.049Z,14.00
2023-05-27T03:11:23.694Z,13.20
2023-05-27T03:13:53.226Z,16.80
2023-05-27T03:16:22.125Z,16.30
2023-05-27T03:18:50.936Z,14.80
2023-05-27T03:21:20.176Z,17.70
2023-05-27T03:23:49.583Z,16.10
2023-05-27T03:26:18.169Z,17.60
2023-05-27T03:28:47.566Z,13.00
2023-05-27T03:31:16.175Z,14.00
2023-05-27T03:33:51.735Z,17.60
2023-05-27T03:36:22.972Z,13.80
2023-05-27T03:38:51.837Z,15.90
2023-05-27T03:41:20.945Z,13.20
2023-05-27T03:43:49.952Z,14.10
2023-05-27T03:46:19.269Z,17.30
2023-05-27T03:48:48.142Z,13.20
2023-05-27T03:51:17.112Z,14.70
2023-05-27T03:53:47.151Z,10.90
2023-05-27T03:56:17.137Z,15.40
2023-05-27T03:58:47.599Z,11.40
2023-05-27T04:01:16.270Z,15.00
2023-05-27T04:03:46.116Z,18.00
2023-05-27T04:06:15.295Z,15.60
2023-05-27T04:08:44.268Z,13.30
2023-05-27T04:11:14.210Z,14.70
2023-05-27T04:13:43.066Z,15.00
2023-05-27T04:16:12.284Z,12.40
2023-05-27T04:18:41.368Z,14.70
2023-05-27T04:21:10.256Z,14.00
2023-05-27T04:23:39.035Z,16.10
2023-05-27T04:26:08.263Z,13.10
2023-05-27T04:28:40.804Z,12.50
2023-05-27T04:31:13.854Z,13.90
2023-05-27T04:33:48.881Z,12.70
2023-05-27T04:36:18.671Z,15.70
2023-05-27T04:39:05.062Z,16.90
2023-05-27T04:41:35.578Z,15.10
2023-05-27T04:44:15.660Z,13.70
2023-05-27T04:46:46.382Z,16.70
2023-05-27T04:49:15.382Z,16.30
2023-05-27T04:51:46.399Z,16.80
2023-05-27T04:54:15.584Z,13.30
2023-05-27T04:56:45.504Z,15.70
2023-05-27T04:59:21.485Z,15.20
2023-05-27T05:02:19.449Z,13.70
2023-05-27T05:04:56.010Z,15.80
2023-05-27T05:07:25.404Z,13.90
2023-05-27T05:09:54.833Z,13.10
2023-05-27T05:12:29.636Z,16.60
2023-05-27T05:14:59.670Z,14.00
2023-05-27T05:17:28.785Z,14.40
2023-05-27T05:19:58.152Z,13.00
2023-05-27T05:22:28.876Z,15.80
2023-05-27T05:24:58.638Z,15.90
2023-05-27T05:27:32.822Z,11.30
2023-05-27T05:30:02.719Z,16.40
2023-05-27T05:32:31.736Z,14.00
2023-05-27T05:35:01.058Z,15.10
2023-05-27T05:37:30.751Z,16.00
2023-05-27T05:39:59.831Z,16.40
2023-05-27T05:42:28.864Z,17.90
2023-05-27T05:44:58.244Z,15.30
2023-05-27T05:47:27.163Z,14.00
2023-05-27T05:50:04.815Z,17.80
2023-05-27T05:52:34.461Z,18.80
2023-05-27T05:55:04.121Z,13.90
2023-05-27T05:57:36.124Z,10.90
2023-05-27T06:00:07.237Z,13.10
2023-05-27T06:02:48.130Z,14.70
2023-05-27T06:05:37.067Z,11.10
2023-05-27T06:08:06.669Z,10.80
2023-05-27T06:10:36.629Z,13.30
2023-05-27T06:13:06.998Z,9.50
2023-05-27T06:15:36.096Z,10.60
2023-05-27T06:18:06.597Z,10.10
2023-05-27T06:20:35.451Z,12.70
2023-05-27T06:23:04.754Z,9.60
2023-05-27T06:26:02.606Z,9.10
2023-05-27T06:28:34.144Z,8.10
2023-05-27T06:31:04.061Z,9.10
2023-05-27T06:33:33.789Z,9.40
2023-05-27T06:36:02.776Z,10.80
2023-05-27T06:38:31.773Z,11.60
2023-05-27T06:41:00.980Z,12.40
2023-05-27T06:43:30.314Z,8.80
2023-05-27T06:46:21.715Z,10.90
2023-05-27T06:49:11.138Z,8.90
2023-05-27T06:51:39.929Z,8.90
2023-05-27T06:54:08.930Z,6.70
2023-05-27T06:56:43.257Z,7.80
2023-05-27T06:59:31.412Z,7.70
2023-05-27T07:02:00.480Z,7.50
2023-05-27T07:04:30.109Z,8.60
2023-05-27T07:07:01.755Z,8.30
2023-05-27T07:09:31.059Z,10.40
2023-05-27T07:12:03.569Z,7.70
2023-05-27T07:14:52.793Z,7.70
2023-05-27T07:17:22.081Z,8.40
2023-05-27T07:19:51.279Z,8.20
2023-05-27T07:22:22.016Z,7.10
2023-05-27T07:24:51.021Z,8.60
2023-05-27T07:27:22.991Z,8.70
2023-05-27T07:29:57.410Z,8.50
2023-05-27T07:32:49.192Z,7.60
2023-05-27T07:35:19.030Z,7.30
2023-05-27T07:37:48.024Z,8.90
2023-05-27T07:40:18.765Z,10.20
2023-05-27T07:42:47.963Z,7.60
2023-05-27T07:45:17.535Z,8.20
2023-05-27T07:47:48.159Z,7.40
2023-05-27T07:50:18.323Z,8.70
2023-05-27T07:52:56.329Z,9.90
2023-05-27T07:55:28.483Z,8.50
2023-05-27T07:57:58.334Z,7.30
2023-05-27T08:00:32.472Z,8.40
2023-05-27T08:03:03.004Z,8.30
2023-05-27T08:06:07.011Z,7.40
2023-05-27T08:09:10.049Z,8.70
2023-05-27T08:12:03.967Z,10.00
2023-05-27T08:15:13.013Z,10.30
2023-05-27T08:18:13.049Z,9.00
2023-05-27T08:20:53.858Z,8.50
2023-05-27T08:24:00.184Z,8.80
2023-05-27T08:26:50.970Z,10.70
2023-05-27T08:29:40.112Z,10.30
2023-05-27T08:32:43.742Z,8.80
2023-05-27T08:35:15.309Z,8.30
2023-05-27T08:37:46.182Z,9.50
2023-05-27T08:40:26.329Z,8.50
2023-05-27T08:43:01.693Z,9.10
2023-05-27T08:45:37.189Z,8.90
2023-05-27T08:48:14.590Z,11.50
2023-05-27T08:50:46.080Z,8.80
2023-05-27T08:53:19.753Z,9.20
2023-05-27T08:55:53.375Z,10.00
2023-05-27T08:58:26.330Z,10.00
2023-05-27T09:00:57.913Z,10.30
2023-05-27T09:03:29.420Z,8.80
2023-05-27T09:06:03.730Z,8.20
2023-05-27T09:08:49.642Z,7.00
2023-05-27T09:11:26.948Z,8.30
2023-05-27T09:13:59.737Z,9.60
2023-05-27T09:16:28.660Z,10.30
2023-05-27T09:18:59.289Z,9.20
2023-05-27T09:21:28.770Z,9.50
2023-05-27T09:24:01.170Z,10.40
2023-05-27T09:26:36.362Z,9.60
2023-05-27T09:29:11.259Z,11.80
2023-05-27T09:31:43.118Z,9.10
2023-05-27T09:34:18.193Z,8.60
2023-05-27T09:36:51.616Z,10.60
2023-05-27T09:39:24.958Z,8.80
2023-05-27T09:42:01.037Z,8.10
2023-05-27T09:44:33.203Z,10.00
2023-05-27T09:47:05.901Z,9.70
2023-05-27T09:49:37.023Z,8.80
2023-05-27T09:52:11.274Z,10.60
2023-05-27T09:54:40.761Z,8.30
2023-05-27T09:57:16.149Z,8.80
2023-05-27T09:59:47.981Z,10.30
2023-05-27T10:02:20.647Z,9.20
2023-05-27T10:04:50.933Z,10.60
2023-05-27T10:07:31.272Z,7.20
2023-05-27T10:10:02.887Z,10.10
2023-05-27T10:12:32.719Z,12.20
2023-05-27T10:15:02.552Z,9.90
2023-05-27T10:17:51.673Z,8.80
2023-05-27T10:20:33.527Z,9.70
2023-05-27T10:23:32.673Z,9.80
2023-05-27T10:26:09.042Z,8.50
2023-05-27T10:28:42.760Z,8.80
2023-05-27T10:31:14.744Z,8.50
2023-05-27T10:33:50.960Z,11.30
2023-05-27T10:36:25.513Z,8.30
2023-05-27T10:38:58.902Z,9.00
2023-05-27T10:41:28.833Z,7.40
2023-05-27T10:44:01.487Z,9.50
2023-05-27T10:46:43.154Z,8.00
2023-05-27T10:49:16.787Z,8.30
2023-05-27T10:51:45.763Z,10.20
2023-05-27T10:56:52.436Z,8.90
2023-05-27T10:59:26.624Z,9.10
2023-05-27T11:01:56.127Z,9.80
2023-05-27T11:04:24.998Z,8.70
2023-05-27T11:07:04.790Z,8.70
2023-05-27T11:09:46.409Z,8.50
2023-05-27T11:12:25.415Z,8.60
2023-05-27T11:14:56.790Z,8.90
2023-05-27T11:17:27.167Z,7.30
2023-05-27T11:19:56.681Z,8.20
2023-05-27T11:22:29.210Z,9.90
2023-05-27T11:24:59.047Z,8.10
2023-05-27T11:27:39.330Z,9.80
2023-05-27T11:30:14.950Z,8.20
2023-05-27T11:32:48.120Z,9.10
2023-05-27T11:35:19.168Z,8.80
2023-05-27T11:37:52.553Z,9.50
2023-05-27T11:40:22.034Z,8.30
2023-05-27T11:42:51.455Z,8.40
2023-05-27T11:45:21.729Z,7.80
2023-05-27T11:47:55.384Z,14.60
2023-05-27T11:50:25.877Z,8.50
2023-05-27T11:52:59.461Z,6.40
2023-05-27T11:55:28.189Z,7.60
2023-05-27T11:57:57.475Z,5.80
2023-05-27T12:00:26.596Z,5.90
2023-05-27T12:02:55.794Z,7.50
2023-05-27T12:05:33.991Z,9.70
2023-05-27T12:08:05.129Z,8.50
2023-05-27T12:10:34.130Z,7.30
2023-05-27T12:13:07.698Z,9.80
2023-05-27T12:15:36.797Z,7.80
2023-05-27T12:18:06.980Z,6.50
2023-05-27T12:20:35.952Z,8.80
2023-05-27T12:23:04.729Z,7.20
2023-05-27T12:25:33.617Z,6.20
2023-05-27T12:28:02.516Z,7.20
2023-05-27T12:30:31.514Z,6.10
2023-05-27T12:33:01.257Z,7.30
2023-05-27T12:35:30.322Z,6.30
2023-05-27T12:37:59.718Z,6.40
2023-05-27T12:40:28.793Z,7.30
2023-05-27T12:42:57.597Z,9.30
2023-05-27T12:45:27.389Z,8.20
2023-05-27T12:47:56.537Z,8.30
2023-05-27T12:50:25.286Z,7.50
2023-05-27T12:52:54.589Z,6.70
2023-05-27T12:55:24.287Z,7.30
2023-05-27T12:57:54.057Z,8.40
2023-05-27T13:00:23.460Z,6.50
2023-05-27T13:02:52.719Z,7.90
2023-05-27T13:05:21.781Z,7.60
2023-05-27T13:08:06.464Z,7.30
2023-05-27T13:10:36.487Z,5.90
2023-05-27T13:13:06.724Z,7.90
2023-05-27T13:15:36.628Z,8.30
2023-05-27T13:18:08.153Z,9.10
2023-05-27T13:20:37.634Z,6.30
2023-05-27T13:23:07.384Z,6.90
2023-05-27T13:25:36.164Z,6.00
2023-05-27T13:28:05.367Z,6.80
2023-05-27T13:30:34.567Z,6.70
2023-05-27T13:33:03.976Z,7.00
2023-05-27T13:35:33.169Z,5.50
2023-05-27T13:38:02.405Z,8.30
2023-05-27T13:40:31.128Z,7.20
2023-05-27T13:42:59.915Z,7.40
2023-05-27T13:45:28.851Z,7.30
2023-05-27T13:47:58.270Z,7.80
2023-05-27T13:50:27.431Z,7.80
2023-05-27T13:52:56.754Z,7.20
2023-05-27T13:55:25.698Z,6.80
2023-05-27T13:57:54.730Z,6.80
2023-05-27T14:00:25.241Z,9.60
2023-05-27T14:02:55.626Z,7.10
2023-05-27T14:05:24.647Z,8.40
2023-05-27T14:07:54.048Z,7.20
2023-05-27T14:10:22.937Z,7.70
2023-05-27T14:12:51.636Z,5.80
2023-05-27T14:15:20.580Z,7.00
2023-05-27T14:17:49.469Z,7.00
2023-05-27T14:20:18.744Z,5.30
2023-05-27T14:22:48.319Z,7.00
2023-05-27T14:25:18.647Z,5.50
2023-05-27T14:27:47.375Z,6.40
2023-05-27T14:30:17.465Z,7.80
2023-05-27T14:32:47.009Z,7.30
2023-05-27T14:35:16.046Z,6.20
2023-05-27T14:37:44.865Z,6.40
2023-05-27T14:40:13.840Z,6.00
2023-05-27T14:42:42.636Z,6.60
2023-05-27T14:45:12.016Z,5.70
2023-05-27T14:47:40.825Z,6.00
2023-05-27T14:50:10.213Z,6.80
2023-05-27T14:52:38.802Z,7.10
2023-05-27T14:55:08.759Z,6.30
2023-05-27T14:57:37.518Z,8.20
2023-05-27T15:00:08.962Z,7.40
2023-05-27T15:02:38.352Z,5.90
2023-05-27T15:05:09.097Z,5.40
2023-05-27T15:07:39.318Z,6.70
2023-05-27T15:10:08.772Z,6.30
2023-05-27T15:12:42.993Z,5.90
2023-05-27T15:15:13.343Z,6.30
2023-05-27T15:17:45.714Z,5.80
2023-05-27T15:20:16.703Z,6.00
2023-05-27T15:22:47.014Z,8.70
2023-05-27T15:25:16.300Z,8.40
2023-05-27T15:27:45.082Z,6.10
2023-05-27T15:30:14.152Z,6.30
2023-05-27T15:32:42.991Z,6.70
2023-05-27T15:35:11.966Z,6.50
2023-05-27T15:37:40.852Z,7.50
2023-05-27T15:40:10.133Z,7.60
2023-05-27T15:42:39.030Z,6.70
2023-05-27T15:45:08.481Z,6.00
2023-05-27T15:47:37.247Z,5.90
2023-05-27T15:50:07.359Z,7.50
2023-05-27T15:52:36.141Z,5.80
2023-05-27T15:55:06.159Z,7.40
2023-05-27T15:57:35.660Z,6.30
2023-05-27T16:00:05.156Z,6.60
2023-05-27T16:02:40.740Z,6.20
2023-05-27T16:05:14.715Z,6.20
2023-05-27T16:07:44.879Z,7.00
2023-05-27T16:10:13.643Z,6.30
2023-05-27T16:12:43.441Z,6.30
2023-05-27T16:15:13.993Z,5.60
2023-05-27T16:17:43.915Z,5.70
2023-05-27T16:20:13.550Z,6.60
2023-05-27T16:22:43.417Z,7.50
2023-05-27T16:25:12.096Z,5.50
2023-05-27T16:27:41.077Z,6.00
2023-05-27T16:30:10.582Z,7.60
2023-05-27T16:32:39.323Z,6.20
2023-05-27T16:35:09.001Z,4.90
2023-05-27T16:37:39.519Z,6.30
2023-05-27T16:40:09.833Z,6.40
2023-05-27T16:42:38.853Z,7.30
2023-05-27T16:45:09.414Z,6.60
2023-05-27T16:47:38.478Z,6.70
2023-05-27T16:50:08.274Z,5.90
2023-05-27T16:52:37.263Z,7.70
2023-05-27T16:55:08.098Z,8.00
2023-05-27T16:57:37.017Z,4.70
2023-05-27T17:00:07.775Z,5.70
2023-05-27T17:02:37.067Z,5.90
2023-05-27T17:05:08.696Z,5.40
2023-05-27T17:07:38.492Z,7.50
2023-05-27T17:10:09.009Z,7.60
2023-05-27T17:12:38.105Z,5.20
2023-05-27T17:15:07.725Z,6.00
2023-05-27T17:17:36.579Z,6.10
2023-05-27T17:20:08.420Z,7.50
2023-05-27T17:22:38.074Z,6.20
2023-05-27T17:25:09.171Z,7.40
2023-05-27T17:27:38.117Z,6.40
2023-05-27T17:30:07.986Z,5.50
2023-05-27T17:32:36.691Z,7.70
2023-05-27T17:35:06.801Z,10.00
2023-05-27T17:37:36.032Z,9.00
2023-05-27T17:40:09.238Z,17.60
2023-05-27T17:42:38.609Z,11.40
2023-05-27T17:45:09.165Z,14.30
2023-05-27T17:47:38.579Z,12.10
2023-05-27T17:50:08.812Z,15.90
2023-05-27T17:52:38.085Z,11.00
2023-05-27T17:55:08.263Z,13.40
2023-05-27T17:57:37.594Z,11.30
2023-05-27T18:00:14.177Z,11.50
2023-05-27T18:02:46.190Z,9.10
2023-05-27T18:05:16.291Z,13.50
2023-05-27T18:07:45.750Z,15.00
2023-05-27T18:10:18.159Z,10.60
2023-05-27T18:12:46.995Z,9.50
2023-05-27T18:15:17.192Z,8.00
2023-05-27T18:17:46.590Z,7.80
2023-05-27T18:20:17.379Z,7.40
2023-05-27T18:22:46.290Z,7.60
2023-05-27T18:25:15.781Z,9.00
2023-05-27T18:27:44.858Z,9.40
2023-05-27T18:30:15.597Z,8.90
2023-05-27T18:32:49.688Z,8.20
2023-05-27T18:37:51.797Z,10.90
2023-05-27T18:40:24.125Z,10.10
2023-05-27T18:42:53.776Z,8.40
2023-05-27T18:46:00.039Z,10.00
2023-05-27T18:48:31.975Z,11.30
2023-05-27T18:51:01.154Z,7.70
2023-05-27T18:53:31.221Z,9.00
2023-05-27T18:56:00.037Z,9.50
2023-05-27T18:58:29.418Z,10.80
2023-05-27T19:00:58.423Z,10.20
2023-05-27T19:03:27.384Z,7.60
2023-05-27T19:05:56.175Z,10.10
2023-05-27T19:08:25.100Z,7.80
2023-05-27T19:10:54.355Z,8.00
2023-05-27T19:13:23.887Z,9.20
2023-05-27T19:15:53.122Z,9.90
2023-05-27T19:18:22.396Z,14.60
2023-05-27T19:20:51.378Z,10.20
2023-05-27T19:23:20.462Z,7.90
2023-05-27T19:25:49.877Z,10.20
2023-05-27T19:28:19.072Z,9.80
2023-05-27T19:30:48.382Z,10.00
2023-05-27T19:33:17.889Z,12.30
2023-05-27T19:35:48.401Z,13.00
2023-05-27T19:38:17.810Z,18.80
2023-05-27T19:40:46.700Z,27.30
2023-05-27T19:43:16.088Z,25.30
2023-05-27T19:45:44.998Z,22.00
2023-05-27T19:48:15.560Z,30.20
2023-05-27T19:50:45.844Z,15.90
2023-05-27T19:53:15.853Z,26.30
2023-05-27T19:55:47.076Z,22.40
2023-05-27T19:58:17.013Z,14.70
2023-05-27T20:00:45.959Z,14.70
2023-05-27T20:03:14.913Z,13.00
2023-05-27T20:05:44.420Z,14.40
2023-05-27T20:08:13.293Z,14.90
2023-05-27T20:10:42.171Z,13.20
2023-05-27T20:13:11.283Z,12.40
2023-05-27T20:15:39.959Z,10.50
2023-05-27T20:18:08.795Z,11.10
2023-05-27T20:20:38.178Z,14.40
2023-05-27T20:23:07.140Z,13.40
2023-05-27T20:25:36.456Z,14.10
2023-05-27T20:28:05.557Z,11.30
2023-05-27T20:30:34.370Z,12.80
2023-05-27T20:33:03.545Z,13.50
2023-05-27T20:35:32.830Z,12.60
2023-05-27T20:38:01.706Z,12.90
2023-05-27T20:40:30.714Z,12.30
2023-05-27T20:42:59.514Z,13.40
2023-05-27T20:45:28.513Z,13.50
2023-05-27T20:47:57.223Z,16.10
2023-05-27T20:50:27.516Z,13.00
2023-05-27T20:52:56.620Z,12.90
2023-05-27T20:55:25.409Z,12.90
2023-05-27T20:57:54.278Z,13.70
2023-05-27T21:00:23.169Z,14.50
2023-05-27T21:02:52.841Z,12.00
2023-05-27T21:05:21.866Z,12.20
2023-05-27T21:07:51.748Z,12.80
2023-05-27T21:10:20.358Z,14.90
2023-05-27T21:12:49.253Z,15.80
2023-05-27T21:15:18.588Z,14.80
2023-05-27T21:17:48.030Z,14.70
2023-05-27T21:20:16.972Z,15.10
2023-05-27T21:22:46.279Z,13.10
2023-05-27T21:25:15.878Z,12.30
2023-05-27T21:27:44.868Z,13.90
2023-05-27T21:30:15.190Z,12.30
2023-05-27T21:32:44.053Z,12.20
2023-05-27T21:35:13.190Z,12.40
2023-05-27T21:37:42.156Z,13.60
2023-05-27T21:40:11.413Z,12.10
2023-05-27T21:42:40.155Z,12.30
2023-05-27T21:45:09.754Z,13.30
2023-05-27T21:47:38.666Z,13.30
2023-05-27T21:50:08.049Z,12.90
2023-05-27T21:52:36.941Z,11.10
2023-05-27T21:55:06.561Z,11.10
2023-05-27T21:57:35.637Z,14.00
2023-05-27T22:00:14.137Z,14.10
2023-05-27T22:02:43.165Z,10.80
2023-05-27T22:05:14.602Z,12.40
2023-05-27T22:07:44.020Z,11.70
2023-05-27T22:10:14.234Z,11.90
2023-05-27T22:12:42.800Z,13.80
2023-05-27T22:15:12.129Z,15.30
2023-05-27T22:17:42.030Z,14.50
2023-05-27T22:20:12.177Z,12.90
2023-05-27T22:22:41.439Z,15.20
2023-05-27T22:25:10.417Z,12.80
2023-05-27T22:27:39.216Z,12.30
2023-05-27T22:30:11.420Z,16.90
2023-05-27T22:32:40.326Z,10.70
2023-05-27T22:35:09.901Z,12.80
2023-05-27T22:37:38.672Z,12.70
2023-05-27T22:40:08.434Z,16.10
2023-05-27T22:42:37.372Z,11.90
2023-05-27T22:45:06.909Z,11.60
2023-05-27T22:47:37.747Z,12.50
2023-05-27T22:50:08.479Z,10.80
2023-05-27T22:52:37.234Z,11.20
2023-05-27T22:55:06.639Z,12.70
2023-05-27T22:57:35.644Z,11.80
2023-05-27T23:00:07.238Z,12.50
2023-05-27T23:02:35.930Z,12.00
2023-05-27T23:05:05.789Z,11.40
2023-05-27T23:07:34.476Z,11.60
2023-05-27T23:10:03.883Z,11.40
2023-05-27T23:12:32.686Z,9.80
2023-05-27T23:15:01.757Z,11.40
2023-05-27T23:17:30.695Z,10.40
2023-05-27T23:19:59.585Z,12.20
2023-05-27T23:22:30.317Z,11.10
2023-05-27T23:25:00.226Z,13.70
2023-05-27T23:27:29.605Z,10.60
2023-05-27T23:29:58.497Z,10.80
2023-05-27T23:32:27.295Z,15.80
2023-05-27T23:34:56.183Z,12.00
2023-05-27T23:37:25.147Z,12.00
2023-05-27T23:39:53.956Z,11.10
2023-05-27T23:42:22.858Z,11.40
2023-05-27T23:44:52.856Z,11.30
2023-05-27T23:47:21.566Z,11.70
2023-05-27T23:49:50.317Z,11.10
2023-05-27T23:52:19.110Z,11.10
2023-05-27T23:54:48.845Z,12.00
2023-05-27T23:57:18.436Z,12.20
